createdAt,value
2022-08-18T00:01:40.747Z,11.70
2022-08-18T00:04:12.428Z,11.10
2022-08-18T00:06:58.437Z,11.60
2022-08-18T00:09:31.485Z,12.00
2022-08-18T00:12:01.313Z,11.00
2022-08-18T00:14:29.215Z,11.70
2022-08-18T00:16:57.158Z,11.40
2022-08-18T00:19:46.746Z,11.40
2022-08-18T00:22:15.828Z,11.80
2022-08-18T00:24:48.056Z,12.00
2022-08-18T00:27:23.703Z,11.80
2022-08-18T00:32:24.038Z,11.90
2022-08-18T00:34:52.788Z,12.10
2022-08-18T00:37:21.379Z,12.00
2022-08-18T00:39:50.993Z,11.90
2022-08-18T00:42:29.800Z,12.90
2022-08-18T00:45:00.926Z,12.40
2022-08-18T00:47:41.483Z,12.00
2022-08-18T00:50:16.726Z,12.70
2022-08-18T00:52:52.717Z,12.50
2022-08-18T00:55:21.089Z,12.00
2022-08-18T00:57:51.066Z,12.70
2022-08-18T01:00:19.671Z,12.20
2022-08-18T01:02:50.805Z,12.40
2022-08-18T01:05:18.389Z,12.80
2022-08-18T01:07:47.152Z,12.20
2022-08-18T01:10:17.110Z,12.00
2022-08-18T01:12:47.066Z,11.20
2022-08-18T01:15:27.800Z,12.30
2022-08-18T01:18:20.508Z,11.90
2022-08-18T01:21:11.416Z,12.40
2022-08-18T01:23:39.751Z,12.90
2022-08-18T01:26:09.402Z,12.00
2022-08-18T01:28:39.160Z,11.80
2022-08-18T01:31:07.696Z,12.40
2022-08-18T01:33:42.491Z,12.80
2022-08-18T01:36:18.389Z,13.20
2022-08-18T01:38:47.431Z,12.60
2022-08-18T01:41:27.124Z,12.50
2022-08-18T01:43:59.395Z,12.80
2022-08-18T01:46:28.628Z,12.90
2022-08-18T01:48:58.664Z,12.30
2022-08-18T01:51:36.708Z,11.40
2022-08-18T01:54:13.395Z,11.80
2022-08-18T01:56:42.487Z,11.90
2022-08-18T01:59:13.749Z,11.90
2022-08-18T02:01:48.906Z,12.90
2022-08-18T02:04:35.238Z,11.70
2022-08-18T02:07:06.486Z,12.30
2022-08-18T02:09:34.816Z,12.00
2022-08-18T02:12:02.451Z,12.70
2022-08-18T02:14:31.148Z,13.40
2022-08-18T02:17:01.829Z,13.30
2022-08-18T02:19:38.691Z,12.70
2022-08-18T02:22:07.366Z,12.70
2022-08-18T02:24:35.341Z,12.40
2022-08-18T02:27:03.796Z,12.10
2022-08-18T02:29:32.052Z,13.30
2022-08-18T02:31:59.744Z,12.30
2022-08-18T02:34:27.580Z,13.00
2022-08-18T02:36:55.296Z,11.80
2022-08-18T02:39:23.029Z,12.80
2022-08-18T02:41:51.690Z,11.90
2022-08-18T02:44:19.647Z,12.70
2022-08-18T02:46:51.771Z,12.80
2022-08-18T02:49:19.590Z,12.60
2022-08-18T02:51:47.662Z,12.60
2022-08-18T02:54:15.970Z,12.90
2022-08-18T02:56:46.260Z,13.20
2022-08-18T02:59:16.792Z,12.80
2022-08-18T03:01:46.096Z,13.30
2022-08-18T03:04:16.091Z,13.40
2022-08-18T03:06:45.511Z,12.90
2022-08-18T03:09:15.536Z,13.40
2022-08-18T03:11:43.877Z,12.30
2022-08-18T03:14:12.531Z,13.00
2022-08-18T03:16:47.606Z,13.60
2022-08-18T03:19:32.006Z,13.50
2022-08-18T03:22:03.679Z,13.80
2022-08-18T03:24:32.829Z,13.30
2022-08-18T03:27:01.868Z,13.50
2022-08-18T03:29:32.808Z,13.00
2022-08-18T03:32:02.275Z,13.50
2022-08-18T03:34:30.327Z,14.20
2022-08-18T03:36:58.542Z,14.60
2022-08-18T03:39:28.163Z,14.00
2022-08-18T03:41:59.965Z,14.50
2022-08-18T03:44:34.503Z,14.30
2022-08-18T03:47:04.003Z,14.90
2022-08-18T03:49:33.662Z,14.90
2022-08-18T03:52:02.546Z,14.40
2022-08-18T03:54:32.482Z,13.50
2022-08-18T03:57:00.640Z,13.90
2022-08-18T03:59:32.054Z,14.50
2022-08-18T04:02:02.655Z,14.60
2022-08-18T04:04:30.764Z,14.50
2022-08-18T04:07:04.838Z,13.60
2022-08-18T04:09:33.317Z,13.70
2022-08-18T04:12:05.800Z,13.50
2022-08-18T04:14:35.006Z,14.10
2022-08-18T04:17:02.775Z,14.10
2022-08-18T04:19:31.466Z,15.10
2022-08-18T04:21:59.120Z,14.60
2022-08-18T04:24:29.747Z,14.70
2022-08-18T04:27:01.501Z,15.30
2022-08-18T04:29:29.296Z,14.90
2022-08-18T04:31:57.177Z,15.20
2022-08-18T04:34:24.839Z,15.10
2022-08-18T04:36:54.076Z,14.70
2022-08-18T04:39:22.934Z,15.60
2022-08-18T04:41:50.966Z,15.50
2022-08-18T04:44:19.652Z,15.00
2022-08-18T04:46:49.309Z,15.90
2022-08-18T04:49:18.053Z,15.30
2022-08-18T04:52:31.039Z,15.50
2022-08-18T04:54:56.730Z,15.30
2022-08-18T04:57:26.373Z,16.10
2022-08-18T04:59:54.415Z,16.60
2022-08-18T05:02:22.164Z,18.30
2022-08-18T05:04:49.905Z,16.40
2022-08-18T05:07:19.369Z,18.00
2022-08-18T05:09:47.557Z,16.90
2022-08-18T05:12:16.368Z,18.00
2022-08-18T05:14:45.703Z,16.60
2022-08-18T05:17:15.515Z,18.40
2022-08-18T05:19:44.712Z,19.60
2022-08-18T05:22:24.256Z,20.30
2022-08-18T05:24:59.348Z,21.90
2022-08-18T05:27:31.419Z,21.50
2022-08-18T05:29:59.183Z,18.90
2022-08-18T05:32:47.062Z,17.90
2022-08-18T05:35:25.652Z,18.00
2022-08-18T05:38:02.614Z,17.90
2022-08-18T05:40:32.042Z,18.30
2022-08-18T05:43:00.296Z,18.00
2022-08-18T05:45:28.271Z,17.50
2022-08-18T05:48:02.540Z,18.00
2022-08-18T05:50:32.814Z,18.20
2022-08-18T05:53:03.738Z,18.00
2022-08-18T05:55:54.322Z,18.40
2022-08-18T05:58:33.248Z,18.20
2022-08-18T06:01:17.132Z,18.30
2022-08-18T06:03:50.560Z,17.80
2022-08-18T06:06:21.543Z,17.20
2022-08-18T06:09:12.856Z,16.80
2022-08-18T06:11:40.844Z,17.60
2022-08-18T06:14:08.507Z,17.30
2022-08-18T06:16:59.905Z,17.10
2022-08-18T06:19:36.584Z,16.10
2022-08-18T06:22:18.780Z,16.80
2022-08-18T06:25:03.751Z,16.60
2022-08-18T06:27:48.829Z,15.80
2022-08-18T06:30:23.245Z,15.60
2022-08-18T06:32:53.181Z,14.60
2022-08-18T06:35:38.946Z,14.10
2022-08-18T06:38:25.739Z,14.50
2022-08-18T06:43:21.444Z,14.60
2022-08-18T06:45:51.951Z,14.40
2022-08-18T06:48:43.960Z,14.50
2022-08-18T06:51:14.294Z,13.70
2022-08-18T06:53:54.601Z,13.70
2022-08-18T06:56:25.931Z,13.80
2022-08-18T06:58:55.513Z,13.40
2022-08-18T07:01:24.628Z,13.40
2022-08-18T07:03:56.460Z,13.90
2022-08-18T07:06:26.681Z,13.60
2022-08-18T07:08:56.368Z,14.20
2022-08-18T07:11:27.082Z,14.30
2022-08-18T07:14:14.866Z,14.80
2022-08-18T07:16:58.359Z,14.70
2022-08-18T07:19:31.946Z,13.90
2022-08-18T07:22:05.422Z,14.80
2022-08-18T07:24:37.601Z,14.20
2022-08-18T07:27:10.246Z,14.20
2022-08-18T07:29:58.147Z,13.90
2022-08-18T07:32:35.749Z,14.10
2022-08-18T07:35:05.959Z,14.00
2022-08-18T07:37:43.020Z,14.00
2022-08-18T07:40:19.700Z,14.60
2022-08-18T07:43:01.333Z,14.20
2022-08-18T07:45:37.268Z,14.20
2022-08-18T07:48:34.833Z,14.30
2022-08-18T07:51:10.998Z,14.20
2022-08-18T07:53:58.449Z,13.00
2022-08-18T07:56:37.921Z,13.70
2022-08-18T07:59:23.962Z,13.60
2022-08-18T08:01:56.268Z,13.50
2022-08-18T08:04:36.355Z,13.20
2022-08-18T08:07:25.404Z,13.60
2022-08-18T08:10:00.018Z,13.50
2022-08-18T08:12:27.886Z,12.50
2022-08-18T08:15:09.521Z,12.60
2022-08-18T08:17:57.835Z,12.20
2022-08-18T08:20:31.992Z,11.80
2022-08-18T08:23:10.804Z,12.60
2022-08-18T08:26:11.535Z,12.40
2022-08-18T08:28:58.467Z,12.80
2022-08-18T08:31:37.282Z,12.00
2022-08-18T08:34:06.162Z,11.70
2022-08-18T08:36:36.379Z,12.10
2022-08-18T08:39:07.020Z,11.10
2022-08-18T08:41:39.831Z,11.20
2022-08-18T08:44:10.737Z,10.30
2022-08-18T08:47:01.859Z,10.40
2022-08-18T08:49:37.527Z,11.60
2022-08-18T08:52:09.891Z,10.00
2022-08-18T08:54:56.953Z,9.00
2022-08-18T08:57:32.636Z,8.50
2022-08-18T09:00:04.233Z,9.60
2022-08-18T09:02:51.713Z,8.70
2022-08-18T09:05:25.571Z,7.80
2022-08-18T09:08:03.197Z,9.00
2022-08-18T09:10:34.100Z,8.20
2022-08-18T09:13:23.315Z,8.50
2022-08-18T09:16:01.059Z,8.40
2022-08-18T09:18:58.177Z,8.80
2022-08-18T09:21:26.446Z,9.00
2022-08-18T09:24:03.015Z,9.30
2022-08-18T09:29:22.116Z,9.40
2022-08-18T09:32:11.663Z,9.10
2022-08-18T09:34:48.641Z,8.60
2022-08-18T09:41:01.239Z,6.90
2022-08-18T09:43:42.166Z,7.40
2022-08-18T09:46:12.396Z,8.30
2022-08-18T09:51:35.765Z,8.80
2022-08-18T09:54:09.912Z,8.60
2022-08-18T09:56:53.906Z,8.20
2022-08-18T09:59:34.163Z,7.10
2022-08-18T10:02:04.097Z,7.80
2022-08-18T10:04:34.867Z,9.00
2022-08-18T10:07:21.333Z,8.50
2022-08-18T10:13:08.200Z,7.60
2022-08-18T10:15:42.927Z,7.30
2022-08-18T10:18:29.394Z,7.70
2022-08-18T10:20:59.492Z,7.80
2022-08-18T10:23:48.124Z,7.70
2022-08-18T10:26:31.320Z,7.30
2022-08-18T10:29:02.332Z,7.00
2022-08-18T10:31:32.048Z,8.10
2022-08-18T10:34:16.369Z,7.70
2022-08-18T10:36:48.032Z,8.50
2022-08-18T10:39:31.215Z,7.80
2022-08-18T10:42:19.983Z,8.70
2022-08-18T10:44:50.625Z,8.50
2022-08-18T10:47:33.500Z,7.40
2022-08-18T10:50:23.269Z,7.50
2022-08-18T10:53:39.161Z,8.30
2022-08-18T10:56:27.382Z,7.40
2022-08-18T10:59:02.436Z,8.10
2022-08-18T11:01:49.399Z,7.40
2022-08-18T11:04:34.504Z,8.30
2022-08-18T11:07:07.773Z,7.40
2022-08-18T11:09:41.516Z,8.00
2022-08-18T11:12:11.904Z,8.50
2022-08-18T11:14:50.172Z,7.50
2022-08-18T11:17:25.268Z,8.50
2022-08-18T11:19:54.999Z,8.20
2022-08-18T11:25:20.223Z,7.90
2022-08-18T11:27:49.546Z,8.40
2022-08-18T11:30:19.338Z,8.20
2022-08-18T11:32:52.243Z,8.50
2022-08-18T11:35:27.748Z,7.80
2022-08-18T11:37:55.720Z,8.10
2022-08-18T11:43:29.960Z,9.10
2022-08-18T11:46:12.673Z,8.80
2022-08-18T11:48:46.383Z,8.80
2022-08-18T11:51:24.077Z,7.90
2022-08-18T11:53:58.728Z,8.00
2022-08-18T11:56:31.352Z,7.60
2022-08-18T11:59:02.050Z,8.00
2022-08-18T12:01:42.171Z,7.80
2022-08-18T12:04:13.836Z,8.10
2022-08-18T12:06:53.579Z,8.10
2022-08-18T12:12:24.447Z,7.30
2022-08-18T12:15:10.487Z,7.60
2022-08-18T12:17:42.790Z,8.30
2022-08-18T12:20:22.083Z,7.90
2022-08-18T12:22:50.631Z,7.80
2022-08-18T12:25:24.699Z,7.40
2022-08-18T12:27:54.742Z,7.40
2022-08-18T12:30:23.466Z,7.40
2022-08-18T12:32:56.234Z,7.80
2022-08-18T12:38:29.475Z,7.80
2022-08-18T12:40:57.522Z,7.70
2022-08-18T12:43:26.005Z,7.80
2022-08-18T12:46:01.136Z,7.50
2022-08-18T12:48:30.626Z,7.50
2022-08-18T12:51:00.779Z,7.80
2022-08-18T12:53:57.830Z,7.50
2022-08-18T12:56:25.071Z,7.70
2022-08-18T12:58:54.048Z,7.60
2022-08-18T13:01:23.314Z,7.70
2022-08-18T13:04:12.876Z,7.50
2022-08-18T13:06:58.943Z,7.60
2022-08-18T13:09:35.583Z,7.60
2022-08-18T13:12:20.729Z,7.60
2022-08-18T13:14:51.522Z,7.70
2022-08-18T13:17:29.644Z,7.90
2022-08-18T13:20:05.761Z,7.90
2022-08-18T13:22:33.696Z,7.60
2022-08-18T13:25:05.365Z,8.20
2022-08-18T13:27:35.970Z,8.10
2022-08-18T13:30:29.945Z,7.90
2022-08-18T13:33:00.351Z,7.80
2022-08-18T13:35:44.279Z,7.60
2022-08-18T13:38:15.837Z,7.60
2022-08-18T13:40:48.831Z,7.80
2022-08-18T13:43:18.467Z,8.20
2022-08-18T13:45:52.803Z,7.70
2022-08-18T13:48:21.816Z,8.10
2022-08-18T13:50:56.336Z,7.40
2022-08-18T13:53:27.430Z,8.00
2022-08-18T13:55:58.590Z,8.50
2022-08-18T13:58:27.823Z,8.10
2022-08-18T14:01:16.026Z,8.40
2022-08-18T14:03:47.213Z,8.50
2022-08-18T14:06:23.025Z,9.00
2022-08-18T14:08:53.023Z,8.90
2022-08-18T14:11:33.046Z,9.00
2022-08-18T14:14:02.400Z,8.30
2022-08-18T14:16:31.543Z,8.90
2022-08-18T14:19:18.102Z,8.70
2022-08-18T14:22:12.011Z,9.00
2022-08-18T14:25:00.230Z,8.30
2022-08-18T14:27:35.905Z,8.70
2022-08-18T14:30:10.156Z,8.50
2022-08-18T14:32:49.060Z,8.50
2022-08-18T14:36:03.741Z,8.40
2022-08-18T14:38:10.092Z,8.50
2022-08-18T14:40:43.055Z,8.60
2022-08-18T14:43:15.863Z,8.70
2022-08-18T14:45:50.265Z,8.00
2022-08-18T14:48:22.080Z,8.00
2022-08-18T14:50:53.793Z,8.00
2022-08-18T14:53:25.230Z,8.50
2022-08-18T14:55:56.408Z,8.50
2022-08-18T14:58:28.923Z,8.20
2022-08-18T15:00:58.459Z,10.80
2022-08-18T15:03:31.427Z,8.40
2022-08-18T15:06:00.963Z,8.20
2022-08-18T15:08:36.598Z,8.20
2022-08-18T15:11:11.578Z,8.10
2022-08-18T15:13:41.889Z,8.30
2022-08-18T15:16:13.632Z,7.80
2022-08-18T15:18:42.381Z,8.50
2022-08-18T15:21:35.682Z,8.60
2022-08-18T15:24:26.770Z,8.40
2022-08-18T15:27:05.493Z,9.00
2022-08-18T15:29:34.613Z,8.50
2022-08-18T15:32:06.028Z,8.40
2022-08-18T15:34:46.872Z,8.50
2022-08-18T15:37:22.270Z,8.40
2022-08-18T15:40:05.361Z,8.40
2022-08-18T15:42:33.319Z,8.30
2022-08-18T15:45:11.537Z,8.20
2022-08-18T15:47:41.718Z,7.90
2022-08-18T15:50:21.732Z,7.70
2022-08-18T15:52:59.868Z,7.80
2022-08-18T15:55:29.290Z,7.80
2022-08-18T15:58:03.992Z,8.20
2022-08-18T16:00:43.699Z,7.50
2022-08-18T16:03:14.673Z,7.40
2022-08-18T16:05:47.062Z,7.40
2022-08-18T16:08:15.538Z,7.70
2022-08-18T16:10:44.014Z,8.00
2022-08-18T16:13:14.688Z,7.50
2022-08-18T16:15:46.967Z,7.50
2022-08-18T16:18:16.075Z,7.60
2022-08-18T16:20:44.646Z,7.60
2022-08-18T16:23:12.723Z,7.80
2022-08-18T16:25:41.428Z,7.30
2022-08-18T16:28:09.579Z,7.80
2022-08-18T16:30:37.575Z,7.50
2022-08-18T16:33:06.653Z,7.90
2022-08-18T16:35:34.893Z,7.50
2022-08-18T16:38:09.029Z,7.60
2022-08-18T16:40:37.728Z,8.20
2022-08-18T16:43:06.212Z,8.10
2022-08-18T16:45:36.429Z,8.10
2022-08-18T16:48:06.645Z,8.00
2022-08-18T16:50:35.341Z,8.10
2022-08-18T16:53:03.401Z,8.60
2022-08-18T16:55:31.952Z,7.60
2022-08-18T16:58:18.800Z,10.30
2022-08-18T17:01:05.496Z,8.60
2022-08-18T17:03:52.149Z,8.80
2022-08-18T17:08:47.436Z,9.40
2022-08-18T17:11:18.069Z,10.10
2022-08-18T17:13:47.064Z,8.60
2022-08-18T17:16:16.062Z,9.00
2022-08-18T17:18:43.926Z,8.80
2022-08-18T17:21:14.150Z,9.40
2022-08-18T17:23:42.727Z,9.30
2022-08-18T17:26:41.233Z,8.70
2022-08-18T17:29:12.767Z,8.90
2022-08-18T17:31:51.900Z,9.30
2022-08-18T17:34:23.452Z,9.40
2022-08-18T17:36:56.283Z,9.00
2022-08-18T17:39:36.828Z,9.50
2022-08-18T17:42:23.503Z,10.40
2022-08-18T17:44:54.313Z,10.00
2022-08-18T17:47:30.993Z,10.20
2022-08-18T17:50:28.162Z,9.30
2022-08-18T17:53:00.961Z,9.70
2022-08-18T17:55:33.672Z,10.60
2022-08-18T17:58:23.112Z,10.90
2022-08-18T18:00:51.545Z,9.60
2022-08-18T18:03:20.681Z,9.10
2022-08-18T18:05:52.026Z,8.90
2022-08-18T18:08:23.793Z,9.60
2022-08-18T18:11:08.638Z,8.80
2022-08-18T18:13:37.027Z,9.30
2022-08-18T18:16:23.839Z,9.00
2022-08-18T18:18:59.968Z,9.70
2022-08-18T18:21:55.341Z,10.30
2022-08-18T18:24:24.188Z,9.10
2022-08-18T18:26:53.309Z,9.60
2022-08-18T18:29:29.210Z,9.00
2022-08-18T18:31:58.483Z,8.70
2022-08-18T18:34:36.495Z,9.10
2022-08-18T18:37:23.947Z,9.40
2022-08-18T18:39:59.493Z,9.40
2022-08-18T18:42:32.929Z,9.00
2022-08-18T18:45:06.260Z,9.00
2022-08-18T18:47:35.539Z,8.70
2022-08-18T18:50:07.074Z,9.20
2022-08-18T18:52:37.403Z,9.10
2022-08-18T18:55:07.194Z,9.10
2022-08-18T18:57:44.313Z,10.10
2022-08-18T19:00:23.421Z,9.00
2022-08-18T19:03:12.224Z,9.90
2022-08-18T19:05:43.845Z,9.00
2022-08-18T19:08:33.098Z,8.70
2022-08-18T19:11:18.845Z,9.80
2022-08-18T19:13:54.465Z,10.10
2022-08-18T19:16:37.939Z,10.00
2022-08-18T19:19:35.478Z,9.40
2022-08-18T19:22:06.397Z,9.60
2022-08-18T19:24:39.052Z,9.20
2022-08-18T19:27:11.961Z,8.70
2022-08-18T19:29:42.574Z,9.50
2022-08-18T19:32:16.381Z,9.20
2022-08-18T19:34:52.382Z,9.00
2022-08-18T19:37:32.538Z,8.70
2022-08-18T19:40:08.369Z,9.00
2022-08-18T19:42:44.904Z,8.90
2022-08-18T19:45:24.970Z,9.30
2022-08-18T19:47:54.075Z,8.70
2022-08-18T19:50:23.006Z,8.90
2022-08-18T19:52:54.308Z,9.00
2022-08-18T19:55:39.978Z,9.60
2022-08-18T19:58:17.618Z,10.20
2022-08-18T20:00:56.979Z,9.80
2022-08-18T20:03:32.247Z,9.60
2022-08-18T20:06:33.483Z,8.90
2022-08-18T20:09:04.571Z,8.70
2022-08-18T20:11:42.014Z,8.20
2022-08-18T20:14:14.937Z,9.60
2022-08-18T20:16:45.108Z,10.00
2022-08-18T20:19:32.260Z,9.40
2022-08-18T20:22:02.062Z,9.10
2022-08-18T20:24:32.184Z,9.10
2022-08-18T20:27:16.043Z,9.30
2022-08-18T20:29:46.457Z,8.90
2022-08-18T20:32:28.355Z,9.20
2022-08-18T20:35:13.951Z,9.00
2022-08-18T20:37:43.024Z,9.00
2022-08-18T20:40:31.883Z,9.20
2022-08-18T20:43:07.628Z,8.90
2022-08-18T20:45:36.527Z,9.20
2022-08-18T20:48:17.093Z,9.60
2022-08-18T20:50:49.975Z,9.60
2022-08-18T20:53:36.988Z,9.40
2022-08-18T20:56:08.640Z,9.60
2022-08-18T20:58:58.117Z,9.90
2022-08-18T21:01:28.136Z,9.50
2022-08-18T21:03:59.359Z,9.70
2022-08-18T21:06:36.464Z,10.00
2022-08-18T21:09:04.960Z,9.40
2022-08-18T21:11:43.897Z,9.90
2022-08-18T21:14:15.745Z,9.50
2022-08-18T21:16:45.662Z,9.30
2022-08-18T21:19:23.784Z,10.30
2022-08-18T21:21:56.845Z,9.50
2022-08-18T21:24:50.720Z,10.10
2022-08-18T21:27:26.376Z,9.70
2022-08-18T21:29:56.279Z,9.90
2022-08-18T21:32:32.033Z,9.60
2022-08-18T21:35:11.022Z,10.40
2022-08-18T21:37:41.617Z,9.90
2022-08-18T21:40:09.899Z,9.70
2022-08-18T21:42:47.400Z,10.10
2022-08-18T21:45:20.359Z,9.70
2022-08-18T21:47:59.380Z,9.90
2022-08-18T21:50:29.184Z,9.70
2022-08-18T21:52:58.567Z,10.40
2022-08-18T21:55:33.417Z,10.60
2022-08-18T21:58:03.571Z,10.40
2022-08-18T22:00:39.750Z,10.20
2022-08-18T22:03:14.218Z,9.50
2022-08-18T22:05:57.924Z,10.20
2022-08-18T22:08:29.633Z,10.20
2022-08-18T22:11:44.189Z,10.10
2022-08-18T22:14:32.927Z,10.00
2022-08-18T22:17:30.390Z,10.00
2022-08-18T22:20:18.231Z,10.30
2022-08-18T22:23:05.654Z,10.70
2022-08-18T22:25:34.218Z,10.80
2022-08-18T22:28:01.948Z,10.10
2022-08-18T22:30:29.658Z,10.30
2022-08-18T22:32:57.662Z,10.00
2022-08-18T22:35:28.365Z,10.40
2022-08-18T22:37:56.179Z,9.90
2022-08-18T22:40:24.036Z,10.50
2022-08-18T22:42:52.637Z,10.10
2022-08-18T22:45:21.448Z,10.40
2022-08-18T22:47:49.514Z,10.50
2022-08-18T22:50:17.509Z,10.40
2022-08-18T22:52:47.697Z,11.00
2022-08-18T22:55:22.091Z,10.30
2022-08-18T22:57:55.785Z,10.20
2022-08-18T23:00:25.478Z,9.80
2022-08-18T23:02:54.951Z,10.40
2022-08-18T23:05:23.593Z,10.00
2022-08-18T23:07:52.216Z,10.40
2022-08-18T23:10:20.442Z,10.00
2022-08-18T23:12:48.735Z,9.80
2022-08-18T23:15:17.642Z,10.60
2022-08-18T23:17:45.342Z,10.20
2022-08-18T23:20:18.010Z,10.40
2022-08-18T23:22:48.355Z,10.10
2022-08-18T23:25:16.494Z,9.30
2022-08-18T23:27:44.422Z,9.70
2022-08-18T23:30:13.980Z,9.90
2022-08-18T23:32:43.058Z,10.00
2022-08-18T23:35:11.498Z,9.40
2022-08-18T23:37:40.260Z,9.80
2022-08-18T23:40:19.597Z,9.40
2022-08-18T23:42:52.005Z,9.30
2022-08-18T23:45:20.850Z,10.20
2022-08-18T23:47:48.922Z,9.00
2022-08-18T23:50:17.095Z,9.60
2022-08-18T23:52:47.525Z,9.40
2022-08-18T23:55:16.618Z,9.50
2022-08-18T23:57:44.506Z,8.90
